Little Rock Air Force Base
KLRF : rendu visible

Aérodrome :











RETROUVEZ-NOUS SUR...

 
LOGIN :

S'inscrire | Disclaimer

   EN    FR    IT 

 









Légende :    VFR   VFR Marginal   IFR   IFR Intensif   IFR Très Intensif
Visi : 
Plafond : 
>= 8 km
>= 3000ft
5 à 8 km
1000 à 3000 ft
1500m à 5 km
500 à 1000 ft
800 à 1500m
200 à 500 ft
< 800m
< 200 ft
Symboles :   Orages  Brouillard  Fortes neiges  Fortes précipitations  Vent > 20 kt






- Altitude de l'aérodrome : 311 ft


KLRF - Little Rock Air Force Base

DERNIER METAR :
  • 231856Z AUTO 19005KT 10SM -RA FEW006 BKN060 OVC075 08/07 A3013 RMK AO2 SLP207 P0004 T00800069 $

METARs EXPIRÉS :
  • 231837Z AUTO 17004KT 10SM -RA FEW006 SCT060 OVC075 08/07 A3014 RMK AO2 SLP210 $
  • 231756Z AUTO 16004KT 10SM -RA OVC060 09/06 A3016 RMK AO2 RAE02DZB02E04DZB17E36RAB36 SLP217 P0000 60000 T00860057 10092 20068 55011 $
  • 231717Z AUTO 16004KT 10SM -DZ OVC060 09/04 A3018 RMK AO2 RAE02DZB02E04DZB17 SLP224 $
  • 231704Z AUTO 20005KT 10SM OVC060 09/04 A3018 RMK AO2 RAE02DZB02E04 SLP224 $
  • 231656Z AUTO 19004KT 10SM -RA OVC060 09/04 A3018 RMK AO2 RAE1557DZB1557E00DZB34E40RAB40 SLP224 P0000 T00900036 $

TAF TAF KLRF
Valide du 23 à 15h jusqu'au 24 à 21h UTC


231500Z 2315/2421 17006KT 9999 -DZ OVC070 QNH3003INS
BECMG 2322/2323 15006KT 9000 -SHRA BR BKN008 OVC020 QNH3000INS
BECMG 2400/2401 14006KT 4800 -SHRA BR OVC005 QNH2980INS
BECMG 2412/2413 18009KT 8000 BR OVC006 QNH2968INS TX13/2415Z TN06/2315Z



MET'MAP, la Météo Aéronautique d'un coup d'oeil ! - Copyright ORBIFLY Décembre 2007 - Disclaimer

ORBIFLY MET'MAP TEAM :

Programmation & Développement : Alexandra Zaïnal
Sur une idée originale de : Baudouin d'Aumeries
Assistance à la programmation : Marc-Olivier Méhu
Soutien technique & logistique : Manuel Goepfert

Contact : metmap@orbifly.com




SOURCES & CREDITS :

   NOAA       Earth
Advisory